createdAt,value
2019-01-05T00:00:09.144Z,0.00
2019-01-05T00:01:09.088Z,0.00
2019-01-05T00:02:09.027Z,0.00
2019-01-05T00:03:08.971Z,0.00
2019-01-05T00:04:08.951Z,0.00
2019-01-05T00:05:08.877Z,0.00
2019-01-05T00:06:08.798Z,0.00
2019-01-05T00:07:08.737Z,0.00
2019-01-05T00:08:08.673Z,0.00
2019-01-05T00:09:08.653Z,0.00
2019-01-05T00:10:08.553Z,0.00
2019-01-05T00:11:08.496Z,0.00
2019-01-05T00:12:08.437Z,0.00
2019-01-05T00:13:08.384Z,0.00
2019-01-05T00:14:08.351Z,0.00
2019-01-05T00:15:08.252Z,0.00
2019-01-05T00:16:08.210Z,0.00
2019-01-05T00:17:08.136Z,0.00
2019-01-05T00:18:08.078Z,0.00
2019-01-05T00:19:08.053Z,0.00
2019-01-05T00:20:07.962Z,0.00
2019-01-05T00:21:07.907Z,0.00
2019-01-05T00:22:07.844Z,0.00
2019-01-05T00:23:07.788Z,0.00
2019-01-05T00:24:07.758Z,0.00
2019-01-05T00:25:07.690Z,0.00
2019-01-05T00:26:07.609Z,0.00
2019-01-05T00:27:07.547Z,0.00
2019-01-05T00:28:07.512Z,0.00
2019-01-05T00:29:07.427Z,0.00
2019-01-05T00:30:07.404Z,0.00
2019-01-05T00:31:07.313Z,0.00
2019-01-05T00:32:07.246Z,0.00
2019-01-05T00:33:07.198Z,0.00
2019-01-05T00:34:07.129Z,0.00
2019-01-05T00:35:07.110Z,0.00
2019-01-05T00:36:07.066Z,0.00
2019-01-05T00:37:06.961Z,0.00
2019-01-05T00:38:06.896Z,0.00
2019-01-05T00:39:06.839Z,0.00
2019-01-05T00:40:06.779Z,0.00
2019-01-05T00:41:06.760Z,0.00
2019-01-05T00:42:06.658Z,0.00
2019-01-05T00:43:06.608Z,0.00
2019-01-05T00:44:06.542Z,0.00
2019-01-05T00:45:06.480Z,0.00
2019-01-05T00:46:06.454Z,0.00
2019-01-05T00:47:06.392Z,0.00
2019-01-05T00:48:06.298Z,0.00
2019-01-05T00:49:06.241Z,0.00
2019-01-05T00:50:06.179Z,0.00
2019-01-05T00:51:06.119Z,0.00
2019-01-05T00:52:06.105Z,0.00
2019-01-05T00:53:06.051Z,0.00
2019-01-05T00:54:05.953Z,0.00
2019-01-05T00:55:05.889Z,0.00
2019-01-05T00:56:05.824Z,0.00
2019-01-05T00:57:05.771Z,0.00
2019-01-05T00:58:05.752Z,0.00
2019-01-05T00:59:05.647Z,0.00
2019-01-05T01:00:05.592Z,0.00
2019-01-05T01:01:05.538Z,0.00
2019-01-05T01:02:05.471Z,0.00
2019-01-05T01:03:05.448Z,0.00
2019-01-05T01:04:05.353Z,0.00
2019-01-05T01:05:05.333Z,0.00
2019-01-05T01:06:05.237Z,0.00
2019-01-05T01:07:05.175Z,0.00
2019-01-05T01:08:05.130Z,0.00
2019-01-05T01:09:05.055Z,0.00
2019-01-05T01:10:05.028Z,0.00
2019-01-05T01:11:04.939Z,0.00
2019-01-05T01:12:04.882Z,0.00
2019-01-05T01:13:04.821Z,0.00
2019-01-05T01:14:04.795Z,0.00
2019-01-05T01:15:04.706Z,0.00
2019-01-05T01:16:04.680Z,0.00
2019-01-05T01:17:04.587Z,0.00
2019-01-05T01:18:04.525Z,0.00
2019-01-05T01:19:04.500Z,0.00
2019-01-05T01:20:04.406Z,0.00
2019-01-05T01:21:04.345Z,0.00
2019-01-05T01:22:04.290Z,0.00
2019-01-05T01:23:04.228Z,0.00
2019-01-05T01:24:04.200Z,0.00
2019-01-05T01:25:04.155Z,0.00
2019-01-05T01:26:04.047Z,0.00
2019-01-05T01:27:03.990Z,0.00
2019-01-05T01:28:03.929Z,0.00
2019-01-05T01:29:03.882Z,0.00
2019-01-05T01:30:03.852Z,0.00
2019-01-05T01:31:03.754Z,0.00
2019-01-05T01:32:03.692Z,0.00
2019-01-05T01:33:03.639Z,0.00
2019-01-05T01:34:03.579Z,0.00
2019-01-05T01:35:03.554Z,0.00
2019-01-05T01:36:03.493Z,0.00
2019-01-05T01:37:03.400Z,0.00
2019-01-05T01:38:03.347Z,0.00
2019-01-05T01:39:03.285Z,0.00
2019-01-05T01:40:03.220Z,0.00
2019-01-05T01:41:03.219Z,0.00
2019-01-05T01:42:03.121Z,0.00
2019-01-05T01:43:03.041Z,0.00
2019-01-05T01:44:02.985Z,0.00
2019-01-05T01:45:02.940Z,0.00
2019-01-05T01:46:02.898Z,0.00
2019-01-05T01:47:02.802Z,0.00
2019-01-05T01:48:02.749Z,0.00
2019-01-05T01:49:02.686Z,0.00
2019-01-05T01:50:02.629Z,0.00
2019-01-05T01:51:02.606Z,0.00
2019-01-05T01:52:02.511Z,0.00
2019-01-05T01:53:02.447Z,0.00
2019-01-05T01:54:02.394Z,0.00
2019-01-05T01:55:02.339Z,0.00
2019-01-05T01:56:02.305Z,0.00
2019-01-05T01:57:02.218Z,0.00
2019-01-05T01:58:02.183Z,0.00
2019-01-05T01:59:02.095Z,0.00
2019-01-05T02:00:02.042Z,0.00
2019-01-05T02:01:01.997Z,0.00
2019-01-05T02:02:01.961Z,0.00
2019-01-05T02:03:05.844Z,0.00
2019-01-05T02:04:01.801Z,0.00
2019-01-05T02:05:01.748Z,0.00
2019-01-05T02:06:01.683Z,0.00
2019-01-05T02:07:01.660Z,0.00
2019-01-05T02:08:01.564Z,0.00
2019-01-05T02:09:01.502Z,0.00
2019-01-05T02:10:01.483Z,0.00
2019-01-05T02:11:01.383Z,0.00
2019-01-05T02:12:01.335Z,0.00
2019-01-05T02:13:01.268Z,0.00
2019-01-05T02:14:01.204Z,0.00
2019-01-05T02:15:01.187Z,0.00
2019-01-05T02:16:01.089Z,0.00
2019-01-05T02:17:01.045Z,0.00
2019-01-05T02:18:00.980Z,0.00
2019-01-05T02:19:00.913Z,0.00
2019-01-05T02:20:00.891Z,0.00
2019-01-05T02:21:00.792Z,0.00
2019-01-05T02:22:00.739Z,0.00
2019-01-05T02:23:00.704Z,0.00
2019-01-05T02:24:00.623Z,0.00
2019-01-05T02:25:00.561Z,0.00
2019-01-05T02:26:00.498Z,0.00
2019-01-05T02:27:00.483Z,0.00
2019-01-05T02:28:00.426Z,0.00
2019-01-05T02:29:00.326Z,0.00
2019-01-05T02:30:00.287Z,0.00
2019-01-05T02:31:00.217Z,0.00
2019-01-05T02:32:00.151Z,0.00
2019-01-05T02:33:00.129Z,0.00
2019-01-05T02:34:00.022Z,0.00
2019-01-05T02:34:59.982Z,0.00
2019-01-05T02:35:59.935Z,0.00
2019-01-05T02:36:59.849Z,0.00
2019-01-05T02:37:59.788Z,0.00
2019-01-05T02:38:59.735Z,0.00
2019-01-05T02:39:59.713Z,0.00
2019-01-05T02:40:59.609Z,0.00
2019-01-05T02:41:59.560Z,0.00
2019-01-05T02:42:59.530Z,0.00
2019-01-05T02:43:59.446Z,0.00
2019-01-05T02:44:59.420Z,0.00
2019-01-05T02:45:59.317Z,0.00
2019-01-05T02:46:59.330Z,0.00
2019-01-05T02:47:59.195Z,0.00
2019-01-05T02:48:59.141Z,0.00
2019-01-05T02:49:59.115Z,0.00
2019-01-05T02:50:59.035Z,0.00
2019-01-05T02:51:58.963Z,0.00
2019-01-05T02:52:58.902Z,0.00
2019-01-05T02:53:58.887Z,0.00
2019-01-05T02:54:58.816Z,0.00
2019-01-05T02:55:58.736Z,0.00
2019-01-05T02:56:58.675Z,0.00
2019-01-05T02:57:58.645Z,0.00
2019-01-05T02:58:58.548Z,0.00
2019-01-05T02:59:58.484Z,0.00
2019-01-05T03:00:58.430Z,0.00
2019-01-05T03:01:58.367Z,0.00
2019-01-05T03:02:58.366Z,0.00
2019-01-05T03:03:58.246Z,0.00
2019-01-05T03:04:58.231Z,0.00
2019-01-05T03:05:58.133Z,0.00
2019-01-05T03:06:58.070Z,0.00
2019-01-05T03:07:58.020Z,0.00
2019-01-05T03:08:57.957Z,0.00
2019-01-05T03:09:57.932Z,0.00
2019-01-05T03:10:57.842Z,0.00
2019-01-05T03:11:57.773Z,0.00
2019-01-05T03:12:57.733Z,0.00
2019-01-05T03:13:57.662Z,0.00
2019-01-05T03:14:57.638Z,0.00
2019-01-05T03:15:57.573Z,0.00
2019-01-05T03:16:57.479Z,0.00
2019-01-05T03:17:57.424Z,0.00
2019-01-05T03:18:57.363Z,0.00
2019-01-05T03:19:57.343Z,0.00
2019-01-05T03:20:57.281Z,0.00
2019-01-05T03:21:57.187Z,0.00
2019-01-05T03:22:57.162Z,0.00
2019-01-05T03:23:57.069Z,0.00
2019-01-05T03:24:57.008Z,0.00
2019-01-05T03:25:56.946Z,0.00
2019-01-05T03:26:56.922Z,0.00
2019-01-05T03:27:56.834Z,0.00
2019-01-05T03:28:56.809Z,0.00
2019-01-05T03:29:56.708Z,0.00
2019-01-05T03:30:56.667Z,0.00
2019-01-05T03:31:56.595Z,0.00
2019-01-05T03:32:56.539Z,0.00
2019-01-05T03:33:56.505Z,0.00
2019-01-05T03:34:56.422Z,0.00
2019-01-05T03:35:56.363Z,0.00
2019-01-05T03:36:56.297Z,0.00
2019-01-05T03:37:56.236Z,0.00
2019-01-05T03:38:56.212Z,0.00
2019-01-05T03:39:56.117Z,0.00
2019-01-05T03:40:56.058Z,0.00
2019-01-05T03:41:56.041Z,0.00
2019-01-05T03:42:55.939Z,0.00
2019-01-05T03:43:55.904Z,0.00
2019-01-05T03:44:55.822Z,0.00
2019-01-05T03:45:55.774Z,0.00
2019-01-05T03:46:55.746Z,0.00
2019-01-05T03:47:55.648Z,0.00
2019-01-05T03:48:55.585Z,0.00
2019-01-05T03:49:55.531Z,0.00
2019-01-05T03:50:55.468Z,0.00
2019-01-05T03:51:55.447Z,0.00
2019-01-05T03:52:55.354Z,0.00
2019-01-05T03:53:55.288Z,0.00
2019-01-05T03:54:55.269Z,0.00
2019-01-05T03:55:55.175Z,0.00
2019-01-05T03:56:55.111Z,0.00
2019-01-05T03:57:55.097Z,0.00
2019-01-05T03:58:55.006Z,0.00
2019-01-05T03:59:54.954Z,0.00
2019-01-05T04:00:54.885Z,0.00
2019-01-05T04:01:54.817Z,0.00
2019-01-05T04:02:54.798Z,0.00
2019-01-05T04:03:54.705Z,0.00
2019-01-05T04:04:54.675Z,0.00
2019-01-05T04:05:54.580Z,0.00
2019-01-05T04:06:54.527Z,0.00
2019-01-05T04:07:54.461Z,0.00
2019-01-05T04:08:54.444Z,0.00
2019-01-05T04:09:54.342Z,0.00
2019-01-05T04:10:54.286Z,0.00
2019-01-05T04:11:54.228Z,0.00
2019-01-05T04:12:54.225Z,0.00
2019-01-05T04:13:54.108Z,0.00
2019-01-05T04:14:54.058Z,0.00
2019-01-05T04:15:53.991Z,0.00
2019-01-05T04:16:53.927Z,0.00
2019-01-05T04:17:53.906Z,0.00
2019-01-05T04:18:53.812Z,0.00
2019-01-05T04:19:53.750Z,0.00
2019-01-05T04:20:53.706Z,0.00
2019-01-05T04:21:53.630Z,0.00
2019-01-05T04:22:53.612Z,0.00
2019-01-05T04:23:53.519Z,0.00
2019-01-05T04:24:53.456Z,0.00
2019-01-05T04:25:53.402Z,0.00
2019-01-05T04:26:53.388Z,0.00
2019-01-05T04:27:53.278Z,0.00
2019-01-05T04:28:53.227Z,0.00
2019-01-05T04:29:53.175Z,0.00
2019-01-05T04:30:53.100Z,0.00
2019-01-05T04:31:53.078Z,0.00
2019-01-05T04:32:52.984Z,0.00
2019-01-05T04:33:52.959Z,0.00
2019-01-05T04:34:52.869Z,0.00
2019-01-05T04:35:52.810Z,0.00
2019-01-05T04:36:52.764Z,0.00
2019-01-05T04:37:52.687Z,0.00
2019-01-05T04:38:52.667Z,0.00
2019-01-05T04:39:52.567Z,0.00
2019-01-05T04:40:52.511Z,0.00
2019-01-05T04:41:52.452Z,0.00
2019-01-05T04:42:52.389Z,0.00
2019-01-05T04:43:52.358Z,0.00
2019-01-05T04:44:52.268Z,0.00
2019-01-05T04:45:52.211Z,0.00
2019-01-05T04:46:52.189Z,0.00
2019-01-05T04:47:52.100Z,0.00
2019-01-05T04:48:52.076Z,0.00
2019-01-05T04:49:51.975Z,0.00
2019-01-05T04:50:51.910Z,0.00
2019-01-05T04:51:51.850Z,0.00
2019-01-05T04:52:51.794Z,0.00
2019-01-05T04:53:51.769Z,0.00
2019-01-05T04:54:51.684Z,0.00
2019-01-05T04:55:51.619Z,0.00
2019-01-05T04:56:51.560Z,0.00
2019-01-05T04:57:51.529Z,0.00
2019-01-05T04:58:51.438Z,0.00
2019-01-05T04:59:51.381Z,0.00
2019-01-05T05:00:51.351Z,0.00
2019-01-05T05:01:51.254Z,0.00
2019-01-05T05:02:51.228Z,0.00
2019-01-05T05:03:51.137Z,0.00
2019-01-05T05:04:51.115Z,0.00
2019-01-05T05:05:51.014Z,0.00
2019-01-05T05:06:51.004Z,0.00
2019-01-05T05:07:50.908Z,0.00
2019-01-05T05:08:50.851Z,0.00
2019-01-05T05:09:50.790Z,0.00
2019-01-05T05:10:50.725Z,0.00
2019-01-05T05:11:50.699Z,0.00
2019-01-05T05:12:50.612Z,0.00
2019-01-05T05:13:50.550Z,0.00
2019-01-05T05:14:50.492Z,0.00
2019-01-05T05:15:50.456Z,0.00
2019-01-05T05:16:50.370Z,0.00
2019-01-05T05:17:50.313Z,0.00
2019-01-05T05:18:50.253Z,0.00
2019-01-05T05:19:50.189Z,0.00
2019-01-05T05:20:50.167Z,0.00
2019-01-05T05:21:50.105Z,0.00
2019-01-05T05:22:50.056Z,0.00
2019-01-05T05:23:49.956Z,0.00
2019-01-05T05:24:49.903Z,0.00
2019-01-05T05:25:49.843Z,0.00
2019-01-05T05:26:49.817Z,0.00
2019-01-05T05:27:49.749Z,0.00
2019-01-05T05:28:49.674Z,0.00
2019-01-05T05:29:49.600Z,0.00
2019-01-05T05:30:49.546Z,0.00
2019-01-05T05:31:49.488Z,0.00
2019-01-05T05:32:49.474Z,0.00
2019-01-05T05:33:49.365Z,0.00
2019-01-05T05:34:49.324Z,0.00
2019-01-05T05:35:49.244Z,0.00
2019-01-05T05:36:49.187Z,0.00
2019-01-05T05:37:49.167Z,0.00
2019-01-05T05:38:49.077Z,0.00
2019-01-05T05:39:49.008Z,0.00
2019-01-05T05:40:48.944Z,0.00
2019-01-05T05:41:48.933Z,0.00
2019-01-05T05:42:48.823Z,0.00
2019-01-05T05:43:48.766Z,0.00
2019-01-05T05:44:48.711Z,0.00
2019-01-05T05:45:48.650Z,0.00
2019-01-05T05:46:48.626Z,0.00
2019-01-05T05:47:48.530Z,0.00
2019-01-05T05:48:48.475Z,0.00
2019-01-05T05:49:48.419Z,0.00
2019-01-05T05:50:48.395Z,0.00
2019-01-05T05:51:48.307Z,0.00
2019-01-05T05:52:48.234Z,0.00
2019-01-05T05:53:48.211Z,0.00
2019-01-05T05:54:48.127Z,0.00
2019-01-05T05:55:48.076Z,0.00
2019-01-05T05:56:48.006Z,0.00
2019-01-05T05:57:47.948Z,0.00
2019-01-05T05:58:47.931Z,0.00
2019-01-05T05:59:47.819Z,0.00
2019-01-05T06:00:47.763Z,0.00
2019-01-05T06:01:47.710Z,0.00
2019-01-05T06:02:47.648Z,0.00
2019-01-05T06:03:47.625Z,0.00
2019-01-05T06:04:47.522Z,0.00
2019-01-05T06:05:47.462Z,0.00
2019-01-05T06:06:47.408Z,0.00
2019-01-05T06:07:47.344Z,0.00
2019-01-05T06:08:47.322Z,0.00
2019-01-05T06:09:47.233Z,0.00
2019-01-05T06:10:47.211Z,0.00
2019-01-05T06:11:47.120Z,0.00
2019-01-05T06:12:47.053Z,0.00
2019-01-05T06:13:46.994Z,0.00
2019-01-05T06:14:46.932Z,0.00
2019-01-05T06:15:46.913Z,0.00
2019-01-05T06:16:46.808Z,0.00
2019-01-05T06:17:46.749Z,0.00
2019-01-05T06:18:46.692Z,0.00
2019-01-05T06:19:46.673Z,0.00
2019-01-05T06:20:46.586Z,0.00
2019-01-05T06:21:46.563Z,0.00
2019-01-05T06:22:46.500Z,0.00
2019-01-05T06:23:46.408Z,0.00
2019-01-05T06:24:46.343Z,0.00
2019-01-05T06:25:46.280Z,0.00
2019-01-05T06:26:46.219Z,0.00
2019-01-05T06:27:46.196Z,0.00
2019-01-05T06:28:46.102Z,0.00
2019-01-05T06:29:46.040Z,0.00
2019-01-05T06:30:45.980Z,0.00
2019-01-05T06:31:45.922Z,0.00
2019-01-05T06:32:45.915Z,0.00
2019-01-05T06:33:45.805Z,0.00
2019-01-05T06:34:45.741Z,0.00
2019-01-05T06:35:45.686Z,0.00
2019-01-05T06:36:45.633Z,0.00
2019-01-05T06:37:45.596Z,0.00
2019-01-05T06:38:45.514Z,0.00
2019-01-05T06:39:45.447Z,0.00
2019-01-05T06:40:45.419Z,0.00
2019-01-05T06:41:45.328Z,0.00
2019-01-05T06:42:45.274Z,0.00
2019-01-05T06:43:45.212Z,0.00
2019-01-05T06:44:45.152Z,0.00
2019-01-05T06:45:45.124Z,0.00
2019-01-05T06:46:45.030Z,0.00
2019-01-05T06:47:44.978Z,0.00
2019-01-05T06:48:44.916Z,0.00
2019-01-05T06:49:44.851Z,0.00
2019-01-05T06:50:44.844Z,0.00
2019-01-05T06:51:44.745Z,0.00
2019-01-05T06:52:44.687Z,0.00
2019-01-05T06:53:44.623Z,0.00
2019-01-05T06:54:44.561Z,0.00
2019-01-05T06:55:44.531Z,0.00
2019-01-05T06:56:44.448Z,0.00
2019-01-05T06:57:44.381Z,0.00
2019-01-05T06:58:44.326Z,0.00
2019-01-05T06:59:44.297Z,0.00
2019-01-05T07:00:44.199Z,0.00
2019-01-05T07:01:44.143Z,0.00
2019-01-05T07:02:44.115Z,0.00
2019-01-05T07:03:44.029Z,0.00
2019-01-05T07:04:43.967Z,0.00
2019-01-05T07:05:43.938Z,0.00
2019-01-05T07:06:43.853Z,0.00
2019-01-05T07:07:43.787Z,0.00
2019-01-05T07:08:43.732Z,0.00
2019-01-05T07:09:43.670Z,0.00
2019-01-05T07:10:43.655Z,0.00
2019-01-05T07:11:43.558Z,0.00
2019-01-05T07:12:43.494Z,0.00
2019-01-05T07:13:43.441Z,0.00
2019-01-05T07:14:43.373Z,0.00
2019-01-05T07:15:43.345Z,0.00
2019-01-05T07:16:43.257Z,0.00
2019-01-05T07:17:43.204Z,0.00
2019-01-05T07:18:43.184Z,0.00
2019-01-05T07:19:43.092Z,0.00
2019-01-05T07:20:43.025Z,0.00
2019-01-05T07:21:42.959Z,0.00
2019-01-05T07:22:42.902Z,0.00
2019-01-05T07:23:42.881Z,0.00
2019-01-05T07:24:42.782Z,0.00
2019-01-05T07:25:42.724Z,0.00
2019-01-05T07:26:42.663Z,0.00
2019-01-05T07:27:42.604Z,0.00
2019-01-05T07:28:42.585Z,0.00
2019-01-05T07:29:42.521Z,0.00
2019-01-05T07:30:42.434Z,0.00
2019-01-05T07:31:42.372Z,0.00
2019-01-05T07:32:42.311Z,0.00
2019-01-05T07:33:42.260Z,0.00
2019-01-05T07:34:42.224Z,0.00
2019-01-05T07:35:42.131Z,0.00
2019-01-05T07:36:42.074Z,0.00
2019-01-05T07:37:42.016Z,0.00
2019-01-05T07:38:41.955Z,0.00
2019-01-05T07:39:41.931Z,0.00
2019-01-05T07:40:41.839Z,0.00
2019-01-05T07:41:41.780Z,0.00
2019-01-05T07:42:41.718Z,0.00
2019-01-05T07:43:41.662Z,0.00
2019-01-05T07:44:41.641Z,0.00
2019-01-05T07:45:41.546Z,0.00
2019-01-05T07:46:41.486Z,0.00
2019-01-05T07:47:41.427Z,0.00
2019-01-05T07:48:41.372Z,0.00
2019-01-05T07:49:41.338Z,0.00
2019-01-05T07:50:41.247Z,0.00
2019-01-05T07:51:41.190Z,0.00
2019-01-05T07:52:41.170Z,0.00
2019-01-05T07:53:41.075Z,0.00
2019-01-05T07:54:41.019Z,5.63
2019-01-05T07:55:40.953Z,5.63
2019-01-05T07:56:40.896Z,5.63
2019-01-05T07:57:40.890Z,5.63
2019-01-05T07:58:40.781Z,5.63
2019-01-05T07:59:40.724Z,5.63
2019-01-05T08:00:40.664Z,5.63
2019-01-05T08:01:40.610Z,5.63
2019-01-05T08:02:40.576Z,5.63
2019-01-05T08:03:40.482Z,5.63
2019-01-05T08:04:40.430Z,5.63
2019-01-05T08:05:40.398Z,5.63
2019-01-05T08:06:40.306Z,5.63
2019-01-05T08:07:40.250Z,5.63
2019-01-05T08:08:40.235Z,5.63
2019-01-05T08:09:40.133Z,5.63
2019-01-05T08:10:40.086Z,5.63
2019-01-05T08:11:40.011Z,5.63
2019-01-05T08:12:39.956Z,5.63
2019-01-05T08:13:39.926Z,5.63
2019-01-05T08:14:39.834Z,5.63
2019-01-05T08:15:39.776Z,5.63
2019-01-05T08:16:39.715Z,5.63
2019-01-05T08:17:39.657Z,5.63
2019-01-05T08:18:39.633Z,5.63
2019-01-05T08:19:39.544Z,5.63
2019-01-05T08:20:39.508Z,5.63
2019-01-05T08:21:39.425Z,5.63
2019-01-05T08:22:39.398Z,5.63
2019-01-05T08:23:39.311Z,5.63
2019-01-05T08:24:39.286Z,5.63
2019-01-05T08:25:39.190Z,5.63
2019-01-05T08:26:39.139Z,5.63
2019-01-05T08:27:39.071Z,5.63
2019-01-05T08:28:39.013Z,5.63
2019-01-05T08:29:38.981Z,5.63
2019-01-05T08:30:38.895Z,5.63
2019-01-05T08:31:38.834Z,5.63
2019-01-05T08:32:38.784Z,5.63
2019-01-05T08:33:38.760Z,5.63
2019-01-05T08:34:38.662Z,5.63
2019-01-05T08:35:38.601Z,5.63
2019-01-05T08:36:38.540Z,5.63
2019-01-05T08:37:38.515Z,5.63
2019-01-05T08:38:38.425Z,5.63
2019-01-05T08:39:38.386Z,5.63
2019-01-05T08:40:38.316Z,5.63
2019-01-05T08:41:38.250Z,5.63
2019-01-05T08:42:38.229Z,5.63
2019-01-05T08:43:38.133Z,5.63
2019-01-05T08:44:38.081Z,5.63
2019-01-05T08:45:38.014Z,5.63
2019-01-05T08:46:37.962Z,5.63
2019-01-05T08:47:37.958Z,5.63
2019-01-05T08:48:37.837Z,5.63
2019-01-05T08:49:37.782Z,11.25
2019-01-05T08:50:37.731Z,11.25
2019-01-05T08:51:37.658Z,11.25
2019-01-05T08:52:37.649Z,11.25
2019-01-05T08:53:37.549Z,11.25
2019-01-05T08:54:37.491Z,11.25
2019-01-05T08:55:37.433Z,11.25
2019-01-05T08:56:37.375Z,11.25
2019-01-05T08:57:37.343Z,11.25
2019-01-05T08:58:37.248Z,11.25
2019-01-05T08:59:37.194Z,11.25
2019-01-05T09:00:37.128Z,11.25
2019-01-05T09:01:37.069Z,11.25
2019-01-05T09:02:37.096Z,11.25
2019-01-05T09:03:36.995Z,11.25
2019-01-05T09:04:36.896Z,16.88
2019-01-05T09:05:36.840Z,16.88
2019-01-05T09:06:36.798Z,16.88
2019-01-05T09:07:36.724Z,16.88
2019-01-05T09:08:36.703Z,11.25
2019-01-05T09:09:38.378Z,16.88
2019-01-05T09:10:36.543Z,11.25
2019-01-05T09:11:36.492Z,16.88
2019-01-05T09:12:36.426Z,11.25
2019-01-05T09:13:36.399Z,16.88
2019-01-05T09:14:36.309Z,16.88
2019-01-05T09:15:36.249Z,16.88
2019-01-05T09:16:36.194Z,16.88
2019-01-05T09:17:36.134Z,16.88
2019-01-05T09:18:36.123Z,16.88
2019-01-05T09:19:36.027Z,16.88
2019-01-05T09:20:35.967Z,16.88
2019-01-05T09:21:35.947Z,16.88
2019-01-05T09:22:35.837Z,16.88
2019-01-05T09:23:35.785Z,22.50
2019-01-05T09:24:35.725Z,22.50
2019-01-05T09:25:35.668Z,28.13
2019-01-05T09:26:35.637Z,28.13
2019-01-05T09:27:35.545Z,28.13
2019-01-05T09:28:35.537Z,28.13
2019-01-05T09:29:35.429Z,28.13
2019-01-05T09:30:35.374Z,28.13
2019-01-05T09:31:35.312Z,28.13
2019-01-05T09:32:35.257Z,28.13
2019-01-05T09:33:35.231Z,28.13
2019-01-05T09:34:35.136Z,33.75
2019-01-05T09:35:35.076Z,39.38
2019-01-05T09:36:35.024Z,39.38
2019-01-05T09:37:36.397Z,39.38
2019-01-05T09:38:34.906Z,33.75
2019-01-05T09:39:34.845Z,28.13
2019-01-05T09:40:34.783Z,28.13
2019-01-05T09:41:34.723Z,28.13
2019-01-05T09:42:34.701Z,28.13
2019-01-05T09:43:34.652Z,22.50
2019-01-05T09:44:34.550Z,22.50
2019-01-05T09:45:34.488Z,22.50
2019-01-05T09:46:34.434Z,22.50
2019-01-05T09:47:34.377Z,22.50
2019-01-05T09:48:34.344Z,22.50
2019-01-05T09:49:34.258Z,22.50
2019-01-05T09:50:34.208Z,22.50
2019-01-05T09:51:34.139Z,28.13
2019-01-05T09:52:34.533Z,28.13
2019-01-05T09:53:34.022Z,28.13
2019-01-05T09:54:33.969Z,28.13
2019-01-05T09:55:33.911Z,28.13
2019-01-05T09:56:33.854Z,28.13
2019-01-05T09:57:33.824Z,28.13
2019-01-05T09:58:33.761Z,28.13
2019-01-05T09:59:33.705Z,28.13
2019-01-05T10:00:33.616Z,28.13
2019-01-05T10:01:33.562Z,28.13
2019-01-05T10:02:33.507Z,28.13
2019-01-05T10:03:33.459Z,28.13
2019-01-05T10:04:33.426Z,28.13
2019-01-05T10:05:33.325Z,28.13
2019-01-05T10:06:33.269Z,28.13
2019-01-05T10:07:33.203Z,28.13
2019-01-05T10:08:33.158Z,33.75
2019-01-05T10:09:33.122Z,33.75
2019-01-05T10:10:33.044Z,33.75
2019-01-05T10:11:32.986Z,28.13
2019-01-05T10:12:32.922Z,28.13
2019-01-05T10:13:32.870Z,28.13
2019-01-05T10:14:32.837Z,28.13
2019-01-05T10:15:32.746Z,33.75
2019-01-05T10:16:32.715Z,33.75
2019-01-05T10:17:32.624Z,28.13
2019-01-05T10:18:32.564Z,28.13
2019-01-05T10:19:32.546Z,28.13
2019-01-05T10:20:32.458Z,28.13
2019-01-05T10:21:32.390Z,28.13
2019-01-05T10:22:32.333Z,28.13
2019-01-05T10:23:32.282Z,28.13
2019-01-05T10:24:32.254Z,28.13
2019-01-05T10:25:32.196Z,28.13
2019-01-05T10:26:32.111Z,28.13
2019-01-05T10:27:32.077Z,28.13
2019-01-05T10:28:32.001Z,28.13
2019-01-05T10:29:31.928Z,33.75
2019-01-05T10:30:31.870Z,39.38
2019-01-05T10:31:31.862Z,33.75
2019-01-05T10:32:31.761Z,39.38
2019-01-05T10:33:31.693Z,39.38
2019-01-05T10:34:31.640Z,33.75
2019-01-05T10:35:31.579Z,33.75
2019-01-05T10:36:31.559Z,33.75
2019-01-05T10:37:31.463Z,28.13
2019-01-05T10:38:33.394Z,28.13
2019-01-05T10:39:31.348Z,33.75
2019-01-05T10:40:31.288Z,33.75
2019-01-05T10:41:31.260Z,33.75
2019-01-05T10:42:31.174Z,28.13
2019-01-05T10:43:31.460Z,33.75
2019-01-05T10:44:31.059Z,33.75
2019-01-05T10:45:31.004Z,39.38
2019-01-05T10:46:30.945Z,39.38
2019-01-05T10:47:30.881Z,45.00
2019-01-05T10:48:30.856Z,39.38
2019-01-05T10:49:30.775Z,28.13
2019-01-05T10:50:30.710Z,28.13
2019-01-05T10:51:30.665Z,33.75
2019-01-05T10:52:30.631Z,33.75
2019-01-05T10:53:30.538Z,33.75
2019-01-05T10:54:30.481Z,28.13
2019-01-05T10:55:30.431Z,33.75
2019-01-05T10:56:30.367Z,28.13
2019-01-05T10:57:30.353Z,33.75
2019-01-05T10:58:30.254Z,33.75
2019-01-05T10:59:30.205Z,28.13
2019-01-05T11:00:30.164Z,28.13
2019-01-05T11:01:30.074Z,28.13
2019-01-05T11:02:30.054Z,33.75
2019-01-05T11:03:29.959Z,28.13
2019-01-05T11:04:29.905Z,28.13
2019-01-05T11:05:29.846Z,28.13
2019-01-05T11:06:29.798Z,28.13
2019-01-05T11:07:29.778Z,33.75
2019-01-05T11:08:29.695Z,33.75
2019-01-05T11:09:29.615Z,39.38
2019-01-05T11:10:29.558Z,39.38
2019-01-05T11:11:29.504Z,39.38
2019-01-05T11:12:29.480Z,39.38
2019-01-05T11:13:29.393Z,33.75
2019-01-05T11:14:29.330Z,39.38
2019-01-05T11:15:29.275Z,33.75
2019-01-05T11:16:29.215Z,33.75
2019-01-05T11:17:29.195Z,33.75
2019-01-05T11:18:29.110Z,28.13
2019-01-05T11:19:29.041Z,28.13
2019-01-05T11:20:29.037Z,28.13
2019-01-05T11:21:28.924Z,28.13
2019-01-05T11:22:28.875Z,22.50
2019-01-05T11:23:28.815Z,28.13
2019-01-05T11:24:28.759Z,28.13
2019-01-05T11:25:28.731Z,22.50
2019-01-05T11:26:28.641Z,22.50
2019-01-05T11:27:28.580Z,22.50
2019-01-05T11:28:28.534Z,22.50
2019-01-05T11:29:28.497Z,22.50
2019-01-05T11:30:28.418Z,22.50
2019-01-05T11:31:28.351Z,22.50
2019-01-05T11:32:28.301Z,22.50
2019-01-05T11:33:28.232Z,22.50
2019-01-05T11:34:28.235Z,22.50
2019-01-05T11:35:28.118Z,22.50
2019-01-05T11:36:28.065Z,22.50
2019-01-05T11:37:28.007Z,22.50
2019-01-05T11:38:27.982Z,22.50
2019-01-05T11:39:27.929Z,28.13
2019-01-05T11:40:27.832Z,28.13
2019-01-05T11:41:27.776Z,28.13
2019-01-05T11:42:27.755Z,22.50
2019-01-05T11:43:27.673Z,22.50
2019-01-05T11:44:27.599Z,22.50
2019-01-05T11:45:27.577Z,28.13
2019-01-05T11:46:27.488Z,28.13
2019-01-05T11:47:27.464Z,28.13
2019-01-05T11:48:27.377Z,28.13
2019-01-05T11:49:27.326Z,28.13
2019-01-05T11:50:27.297Z,22.50
2019-01-05T11:51:27.205Z,16.88
2019-01-05T11:52:27.146Z,16.88
2019-01-05T11:53:27.088Z,16.88
2019-01-05T11:54:27.073Z,16.88
2019-01-05T11:55:26.970Z,16.88
2019-01-05T11:56:26.915Z,16.88
2019-01-05T11:57:26.871Z,16.88
2019-01-05T11:58:26.803Z,16.88
2019-01-05T11:59:26.783Z,16.88
2019-01-05T12:00:26.697Z,16.88
2019-01-05T12:01:26.635Z,16.88
2019-01-05T12:02:26.573Z,11.25
2019-01-05T12:03:26.520Z,11.25
2019-01-05T12:04:26.514Z,16.88
2019-01-05T12:05:26.397Z,11.25
2019-01-05T12:06:26.345Z,11.25
2019-01-05T12:07:26.286Z,11.25
2019-01-05T12:08:26.235Z,11.25
2019-01-05T12:09:26.215Z,11.25
2019-01-05T12:10:26.116Z,11.25
2019-01-05T12:11:26.057Z,16.88
2019-01-05T12:12:26.004Z,11.25
2019-01-05T12:13:25.936Z,11.25
2019-01-05T12:14:25.927Z,11.25
2019-01-05T12:15:25.831Z,11.25
2019-01-05T12:16:25.767Z,11.25
2019-01-05T12:17:25.714Z,11.25
2019-01-05T12:18:25.656Z,11.25
2019-01-05T12:19:25.642Z,11.25
2019-01-05T12:20:25.547Z,11.25
2019-01-05T12:21:25.486Z,11.25
2019-01-05T12:22:25.426Z,11.25
2019-01-05T12:23:25.369Z,11.25
2019-01-05T12:24:25.350Z,11.25
2019-01-05T12:25:25.255Z,11.25
2019-01-05T12:26:25.841Z,11.25
2019-01-05T12:27:25.139Z,11.25
2019-01-05T12:28:25.085Z,11.25
2019-01-05T12:29:25.022Z,11.25
2019-01-05T12:30:24.971Z,11.25
2019-01-05T12:31:24.953Z,11.25
2019-01-05T12:32:24.908Z,11.25
2019-01-05T12:33:24.799Z,11.25
2019-01-05T12:34:24.745Z,11.25
2019-01-05T12:35:24.856Z,11.25
2019-01-05T12:36:24.634Z,11.25
2019-01-05T12:37:24.607Z,11.25
2019-01-05T12:38:24.512Z,11.25
2019-01-05T12:39:24.473Z,11.25
2019-01-05T12:40:24.406Z,11.25
2019-01-05T12:41:24.344Z,11.25
2019-01-05T12:42:24.322Z,5.63
2019-01-05T12:43:24.234Z,5.63
2019-01-05T12:44:24.169Z,5.63
2019-01-05T12:45:24.110Z,5.63
2019-01-05T12:46:24.056Z,5.63
2019-01-05T12:47:24.031Z,5.63
2019-01-05T12:48:23.939Z,5.63
2019-01-05T12:49:23.897Z,5.63
2019-01-05T12:50:23.828Z,11.25
2019-01-05T12:51:23.769Z,5.63
2019-01-05T12:52:23.753Z,5.63
2019-01-05T12:53:23.655Z,5.63
2019-01-05T12:54:23.599Z,5.63
2019-01-05T12:55:23.541Z,11.25
2019-01-05T12:56:23.493Z,11.25
2019-01-05T12:57:23.457Z,11.25
2019-01-05T12:58:23.370Z,11.25
2019-01-05T12:59:23.315Z,11.25
2019-01-05T13:00:23.259Z,11.25
2019-01-05T13:01:23.202Z,11.25
2019-01-05T13:02:23.173Z,11.25
2019-01-05T13:03:23.086Z,11.25
2019-01-05T13:04:23.072Z,11.25
2019-01-05T13:05:22.981Z,11.25
2019-01-05T13:06:22.925Z,11.25
2019-01-05T13:07:22.855Z,11.25
2019-01-05T13:08:22.808Z,11.25
2019-01-05T13:09:22.795Z,11.25